createdAt,value
2023-05-15T00:01:19.248Z,14.60
2023-05-15T00:03:24.290Z,14.54
2023-05-15T00:05:29.286Z,14.48
2023-05-15T00:07:36.698Z,14.41
2023-05-15T00:09:41.583Z,14.41
2023-05-15T00:11:46.534Z,14.41
2023-05-15T00:13:51.617Z,14.45
2023-05-15T00:15:59.252Z,14.44
2023-05-15T00:18:04.191Z,14.44
2023-05-15T00:20:10.516Z,14.49
2023-05-15T00:22:15.467Z,14.53
2023-05-15T00:24:20.309Z,14.52
2023-05-15T00:26:26.884Z,14.54
2023-05-15T00:28:31.779Z,14.58
2023-05-15T00:30:36.682Z,14.61
2023-05-15T00:32:44.433Z,14.57
2023-05-15T00:34:49.319Z,14.39
2023-05-15T00:36:54.288Z,14.27
2023-05-15T00:38:59.161Z,14.21
2023-05-15T00:41:04.778Z,14.14
2023-05-15T00:43:10.976Z,14.09
2023-05-15T00:45:17.117Z,14.05
2023-05-15T00:47:25.291Z,14.04
2023-05-15T00:49:35.813Z,14.01
2023-05-15T00:51:41.489Z,14.00
2023-05-15T00:53:46.676Z,13.95
2023-05-15T00:55:53.248Z,13.95
2023-05-15T00:58:00.595Z,13.93
2023-05-15T01:00:10.588Z,13.95
2023-05-15T01:02:18.848Z,14.01
2023-05-15T01:04:23.833Z,14.05
2023-05-15T01:06:33.165Z,14.11
2023-05-15T01:08:45.105Z,14.15
2023-05-15T01:10:51.420Z,14.04
2023-05-15T01:12:58.527Z,13.85
2023-05-15T01:15:03.531Z,13.76
2023-05-15T01:17:08.453Z,13.68
2023-05-15T01:19:13.497Z,13.64
2023-05-15T01:21:59.303Z,13.70
2023-05-15T01:24:14.498Z,13.67
2023-05-15T01:26:47.225Z,13.68
2023-05-15T01:29:02.126Z,13.63
2023-05-15T01:31:13.609Z,13.62
2023-05-15T01:33:23.976Z,13.62
2023-05-15T01:35:35.898Z,13.61
2023-05-15T01:37:50.121Z,13.67
2023-05-15T01:39:58.706Z,13.63
2023-05-15T01:42:08.320Z,13.58
2023-05-15T01:44:20.393Z,13.50
2023-05-15T01:46:27.989Z,13.45
2023-05-15T01:48:36.718Z,13.48
2023-05-15T01:50:46.517Z,13.53
2023-05-15T01:52:55.436Z,13.58
2023-05-15T01:55:01.389Z,13.61
2023-05-15T01:57:07.551Z,13.52
2023-05-15T01:59:17.541Z,13.36
2023-05-15T02:01:22.828Z,13.29
2023-05-15T02:03:29.034Z,13.24
2023-05-15T02:05:34.669Z,13.24
2023-05-15T02:07:40.006Z,13.18
2023-05-15T02:09:46.211Z,13.22
2023-05-15T02:11:51.566Z,13.25
2023-05-15T02:13:59.817Z,13.26
2023-05-15T02:16:07.852Z,13.20
2023-05-15T02:18:12.907Z,13.12
2023-05-15T02:20:17.848Z,13.13
2023-05-15T02:22:22.750Z,13.13
2023-05-15T02:24:27.806Z,13.09
2023-05-15T02:26:40.191Z,13.09
2023-05-15T02:28:53.350Z,13.06
2023-05-15T02:31:03.535Z,13.00
2023-05-15T02:33:22.598Z,12.97
2023-05-15T02:35:35.103Z,12.92
2023-05-15T02:37:45.093Z,12.93
2023-05-15T02:39:54.533Z,12.91
2023-05-15T02:42:00.339Z,12.91
2023-05-15T02:44:06.314Z,12.86
2023-05-15T02:46:11.515Z,12.74
2023-05-15T02:48:19.753Z,12.76
2023-05-15T02:50:25.649Z,12.76
2023-05-15T02:52:31.381Z,12.79
2023-05-15T02:54:36.358Z,12.82
2023-05-15T02:56:41.259Z,12.78
2023-05-15T02:58:46.226Z,12.80
2023-05-15T03:00:51.255Z,12.78
2023-05-15T03:02:56.273Z,12.82
2023-05-15T03:05:03.832Z,12.77
2023-05-15T03:07:08.771Z,12.68
2023-05-15T03:09:13.653Z,12.63
2023-05-15T03:11:19.449Z,12.56
2023-05-15T03:13:24.388Z,12.53
2023-05-15T03:15:29.385Z,12.49
2023-05-15T03:17:37.015Z,12.42
2023-05-15T03:19:41.978Z,12.38
2023-05-15T03:21:49.540Z,12.42
2023-05-15T03:23:54.538Z,12.37
2023-05-15T03:25:59.820Z,12.28
2023-05-15T03:28:04.866Z,12.19
2023-05-15T03:30:11.306Z,12.16
2023-05-15T03:32:16.201Z,12.08
2023-05-15T03:34:21.185Z,12.07
2023-05-15T03:36:26.108Z,12.02
2023-05-15T03:38:33.573Z,12.02
2023-05-15T03:40:41.214Z,11.90
2023-05-15T03:42:46.099Z,11.91
2023-05-15T03:44:51.089Z,11.97
2023-05-15T03:46:56.249Z,11.98
2023-05-15T03:49:01.332Z,12.00
2023-05-15T03:51:06.625Z,11.92
2023-05-15T03:53:11.518Z,11.92
2023-05-15T03:55:19.221Z,11.87
2023-05-15T03:57:24.309Z,11.90
2023-05-15T03:59:29.192Z,11.90
2023-05-15T04:01:39.311Z,12.02
2023-05-15T04:03:52.282Z,12.15
2023-05-15T04:05:57.196Z,12.24
2023-05-15T04:08:02.129Z,12.33
2023-05-15T04:10:07.874Z,12.40
2023-05-15T04:12:15.352Z,12.45
2023-05-15T04:14:20.413Z,12.50
2023-05-15T04:16:25.315Z,12.55
2023-05-15T04:18:30.350Z,12.57
2023-05-15T04:20:37.721Z,12.58
2023-05-15T04:22:43.811Z,12.59
2023-05-15T04:24:48.774Z,12.61
2023-05-15T04:26:53.767Z,12.64
2023-05-15T04:29:04.341Z,12.67
2023-05-15T04:31:09.784Z,12.67
2023-05-15T04:33:14.715Z,12.57
2023-05-15T04:35:19.680Z,12.55
2023-05-15T04:37:24.711Z,12.59
2023-05-15T04:39:29.723Z,12.59
2023-05-15T04:41:34.638Z,12.59
2023-05-15T04:43:41.193Z,12.63
2023-05-15T04:45:48.951Z,12.65
2023-05-15T04:47:54.058Z,12.56
2023-05-15T04:49:59.308Z,12.51
2023-05-15T04:52:04.147Z,12.50
2023-05-15T04:54:09.034Z,12.55
2023-05-15T04:56:13.998Z,12.57
2023-05-15T04:58:19.044Z,12.56
2023-05-15T05:00:23.907Z,12.55
2023-05-15T05:02:31.408Z,12.64
2023-05-15T05:04:36.346Z,12.74
2023-05-15T05:06:41.307Z,12.85
2023-05-15T05:08:46.193Z,12.94
2023-05-15T05:10:51.178Z,12.89
2023-05-15T05:12:56.090Z,12.89
2023-05-15T05:15:01.001Z,13.08
2023-05-15T05:17:06.400Z,13.32
2023-05-15T05:19:14.113Z,13.63
2023-05-15T05:21:19.064Z,13.89
2023-05-15T05:23:23.959Z,14.14
2023-05-15T05:25:44.713Z,14.43
2023-05-15T05:27:49.576Z,14.64
2023-05-15T05:29:55.501Z,14.69
2023-05-15T05:32:00.810Z,14.77
2023-05-15T05:34:05.903Z,14.76
2023-05-15T05:36:13.633Z,14.64
2023-05-15T05:38:18.514Z,14.57
2023-05-15T05:40:23.861Z,14.52
2023-05-15T05:42:28.759Z,14.42
2023-05-15T05:44:34.713Z,14.43
2023-05-15T05:46:41.761Z,14.35
2023-05-15T05:48:46.702Z,14.35
2023-05-15T05:50:51.658Z,14.22
2023-05-15T05:52:59.147Z,14.22
2023-05-15T05:55:04.058Z,14.21
2023-05-15T05:57:09.412Z,14.18
2023-05-15T05:59:14.501Z,14.15
2023-05-15T06:01:19.441Z,14.09
2023-05-15T06:03:26.124Z,14.06
2023-05-15T06:05:31.610Z,14.04
2023-05-15T06:07:37.054Z,13.96
2023-05-15T06:09:46.133Z,13.87
2023-05-15T06:11:51.169Z,13.84
2023-05-15T06:13:56.200Z,13.91
2023-05-15T06:16:01.746Z,13.99
2023-05-15T06:18:06.927Z,13.89
2023-05-15T06:20:12.280Z,13.93
2023-05-15T06:22:17.305Z,14.07
2023-05-15T06:24:22.243Z,14.14
2023-05-15T06:26:29.775Z,14.24
2023-05-15T06:28:34.641Z,14.35
2023-05-15T06:30:42.873Z,14.34
2023-05-15T06:32:47.794Z,14.29
2023-05-15T06:34:52.882Z,14.48
2023-05-15T06:36:57.652Z,14.51
2023-05-15T06:39:02.616Z,14.40
2023-05-15T06:41:07.817Z,14.52
2023-05-15T06:43:15.076Z,14.48
2023-05-15T06:45:20.211Z,14.55
2023-05-15T06:47:25.010Z,14.51
2023-05-15T06:49:30.295Z,14.53
2023-05-15T06:51:34.937Z,14.59
2023-05-15T06:53:43.158Z,14.57
2023-05-15T06:55:48.139Z,14.82
2023-05-15T06:57:53.482Z,14.97
2023-05-15T07:00:01.016Z,15.03
2023-05-15T07:02:06.765Z,15.04
2023-05-15T07:04:13.905Z,15.03
2023-05-15T07:06:18.835Z,15.05
2023-05-15T07:08:23.772Z,15.32
2023-05-15T07:10:28.858Z,15.50
2023-05-15T07:12:34.524Z,15.54
2023-05-15T07:14:39.718Z,15.59
2023-05-15T07:16:47.379Z,15.73
2023-05-15T07:18:52.449Z,15.98
2023-05-15T07:20:57.598Z,16.17
2023-05-15T07:23:02.511Z,16.33
2023-05-15T07:25:08.452Z,16.45
2023-05-15T07:27:13.380Z,16.32
2023-05-15T07:29:18.239Z,16.33
2023-05-15T07:31:23.737Z,16.23
2023-05-15T07:33:31.298Z,16.34
2023-05-15T07:35:36.198Z,16.38
2023-05-15T07:37:41.711Z,16.44
2023-05-15T07:39:46.818Z,16.55
2023-05-15T07:41:51.725Z,16.74
2023-05-15T07:43:56.658Z,17.01
2023-05-15T07:46:04.377Z,17.23
2023-05-15T07:48:20.082Z,17.29
2023-05-15T07:50:27.306Z,17.17
2023-05-15T07:52:32.255Z,17.17
2023-05-15T07:54:37.214Z,17.31
2023-05-15T07:56:45.100Z,17.42
2023-05-15T07:58:50.164Z,17.48
2023-05-15T08:00:54.854Z,17.23
2023-05-15T08:02:59.753Z,17.04
2023-05-15T08:05:05.588Z,16.84
2023-05-15T08:07:13.096Z,16.84
2023-05-15T08:09:18.086Z,17.02
2023-05-15T08:11:22.994Z,17.27
2023-05-15T08:13:28.912Z,17.32
2023-05-15T08:15:33.932Z,17.27
2023-05-15T08:17:39.220Z,17.30
2023-05-15T08:19:44.118Z,17.19
2023-05-15T08:21:49.020Z,17.24
2023-05-15T08:23:56.778Z,17.18
2023-05-15T08:26:01.985Z,17.27
2023-05-15T08:28:07.481Z,17.28
2023-05-15T08:30:13.493Z,17.39
2023-05-15T08:32:18.434Z,17.59
2023-05-15T08:34:23.287Z,17.78
2023-05-15T08:36:28.346Z,18.05
2023-05-15T08:38:33.045Z,18.06
2023-05-15T08:40:40.788Z,18.13
2023-05-15T08:42:48.232Z,18.38
2023-05-15T08:44:53.628Z,18.66
2023-05-15T08:46:59.652Z,18.81
2023-05-15T08:49:09.045Z,19.06
2023-05-15T08:51:14.572Z,19.20
2023-05-15T08:53:19.832Z,19.34
2023-05-15T08:55:25.318Z,19.07
2023-05-15T08:57:34.534Z,18.83
2023-05-15T08:59:40.559Z,18.58
2023-05-15T09:01:45.901Z,18.65
2023-05-15T09:03:51.118Z,18.54
2023-05-15T09:05:57.517Z,18.24
2023-05-15T09:08:04.069Z,18.37
2023-05-15T09:10:11.316Z,18.51
2023-05-15T09:12:18.529Z,18.87
2023-05-15T09:14:26.089Z,19.22
2023-05-15T09:16:31.072Z,19.42
2023-05-15T09:18:35.894Z,19.50
2023-05-15T09:20:41.369Z,19.51
2023-05-15T09:22:46.366Z,19.60
2023-05-15T09:24:53.209Z,19.29
2023-05-15T09:27:06.507Z,19.13
2023-05-15T09:29:12.150Z,18.82
2023-05-15T09:31:23.134Z,18.69
2023-05-15T09:33:31.624Z,18.61
2023-05-15T09:35:37.862Z,18.69
2023-05-15T09:37:44.025Z,18.81
2023-05-15T09:39:48.692Z,18.76
2023-05-15T09:41:53.732Z,18.86
2023-05-15T09:43:59.166Z,19.21
2023-05-15T09:46:04.354Z,19.45
2023-05-15T09:48:13.114Z,19.64
2023-05-15T09:50:24.403Z,19.57
2023-05-15T09:52:30.723Z,19.74
2023-05-15T09:54:39.246Z,19.97
2023-05-15T09:56:44.484Z,19.71
2023-05-15T09:58:56.341Z,19.44
2023-05-15T10:01:04.456Z,18.88
2023-05-15T10:03:13.448Z,18.44
2023-05-15T10:05:21.531Z,18.06
2023-05-15T10:07:31.891Z,17.80
2023-05-15T10:09:36.879Z,17.73
2023-05-15T10:11:43.800Z,17.58
2023-05-15T10:13:49.004Z,17.52
2023-05-15T10:15:55.759Z,17.47
2023-05-15T10:18:01.765Z,17.38
2023-05-15T10:20:11.200Z,17.37
2023-05-15T10:22:19.157Z,17.31
2023-05-15T10:24:24.823Z,17.17
2023-05-15T10:26:36.373Z,16.70
2023-05-15T10:28:44.798Z,16.23
2023-05-15T10:30:51.459Z,15.11
2023-05-15T10:32:59.148Z,13.79
2023-05-15T10:35:06.151Z,13.26
2023-05-15T10:37:16.018Z,13.40
2023-05-15T10:39:22.246Z,13.56
2023-05-15T10:41:29.433Z,13.64
2023-05-15T10:43:36.541Z,13.76
2023-05-15T10:45:42.645Z,13.91
2023-05-15T10:47:48.618Z,13.99
2023-05-15T10:49:53.634Z,14.08
2023-05-15T10:51:58.993Z,14.21
2023-05-15T10:54:07.243Z,14.25
2023-05-15T10:56:16.791Z,14.40
2023-05-15T10:58:25.779Z,14.70
2023-05-15T11:00:33.067Z,15.15
2023-05-15T11:02:42.484Z,15.39
2023-05-15T11:04:47.741Z,15.24
2023-05-15T11:06:53.750Z,15.13
2023-05-15T11:09:48.491Z,15.33
2023-05-15T11:12:00.485Z,15.20
2023-05-15T11:14:20.293Z,15.20
2023-05-15T11:16:58.249Z,15.20
2023-05-15T11:19:03.823Z,15.40
2023-05-15T11:21:10.742Z,15.33
2023-05-15T11:23:16.390Z,15.31
2023-05-15T11:25:21.583Z,15.18
2023-05-15T11:27:34.710Z,15.00
2023-05-15T11:29:39.717Z,14.54
2023-05-15T11:31:44.701Z,14.35
2023-05-15T11:33:53.900Z,14.41
2023-05-15T11:36:02.087Z,14.31
2023-05-15T11:38:13.920Z,14.52
2023-05-15T11:40:23.731Z,14.73
2023-05-15T11:42:31.495Z,14.60
2023-05-15T11:44:36.534Z,14.57
2023-05-15T11:46:44.902Z,14.75
2023-05-15T11:48:50.663Z,14.37
2023-05-15T11:50:56.135Z,14.16
2023-05-15T11:53:01.358Z,14.77
2023-05-15T11:55:06.887Z,15.05
2023-05-15T11:57:11.876Z,15.34
2023-05-15T11:59:19.460Z,15.28
2023-05-15T12:01:24.541Z,15.08
2023-05-15T12:03:30.386Z,15.17
2023-05-15T12:05:35.958Z,14.85
2023-05-15T12:07:41.931Z,15.30
2023-05-15T12:09:47.240Z,15.77
2023-05-15T12:11:53.903Z,15.78
2023-05-15T12:13:59.238Z,16.16
2023-05-15T12:16:07.840Z,16.17
2023-05-15T12:18:13.169Z,16.16
2023-05-15T12:20:20.756Z,15.77
2023-05-15T12:22:25.700Z,15.37
2023-05-15T12:24:30.885Z,15.71
2023-05-15T12:26:36.213Z,15.74
2023-05-15T12:28:41.527Z,15.93
2023-05-15T12:30:47.507Z,15.81
2023-05-15T12:32:55.240Z,15.92
2023-05-15T12:35:00.598Z,15.80
2023-05-15T12:37:06.037Z,16.08
2023-05-15T12:39:11.348Z,16.00
2023-05-15T12:41:16.387Z,16.07
2023-05-15T12:43:21.277Z,16.11
2023-05-15T12:45:29.186Z,16.27
2023-05-15T12:47:34.701Z,16.46
2023-05-15T12:49:43.803Z,16.60
2023-05-15T12:51:48.794Z,16.65
2023-05-15T12:53:55.850Z,16.93
2023-05-15T12:56:00.971Z,17.07
2023-05-15T12:58:07.593Z,16.68
2023-05-15T13:00:14.717Z,16.64
2023-05-15T13:02:23.059Z,16.98
2023-05-15T13:04:28.626Z,17.14
2023-05-15T13:06:45.619Z,17.55
2023-05-15T13:08:51.235Z,18.19
2023-05-15T13:10:59.850Z,18.58
2023-05-15T13:13:05.098Z,19.04
2023-05-15T13:15:11.275Z,19.29
2023-05-15T13:17:17.841Z,19.39
2023-05-15T13:19:22.801Z,19.37
2023-05-15T13:21:27.616Z,19.41
2023-05-15T13:23:35.194Z,19.34
2023-05-15T13:25:40.674Z,19.42
2023-05-15T13:27:45.871Z,19.35
2023-05-15T13:29:51.238Z,19.52
2023-05-15T13:31:56.255Z,19.59
2023-05-15T13:34:01.105Z,19.78
2023-05-15T13:36:06.219Z,20.01
2023-05-15T13:38:11.856Z,20.18
2023-05-15T13:40:20.224Z,20.41
2023-05-15T13:42:25.166Z,20.60
2023-05-15T13:44:30.072Z,20.82
2023-05-15T13:46:35.097Z,21.00
2023-05-15T13:48:40.037Z,21.30
2023-05-15T13:50:45.896Z,21.64
2023-05-15T13:52:50.776Z,21.69
2023-05-15T13:54:55.759Z,21.66
2023-05-15T13:57:03.498Z,21.53
2023-05-15T13:59:08.458Z,21.40
2023-05-15T14:01:13.222Z,21.25
2023-05-15T14:03:18.287Z,21.30
2023-05-15T14:05:23.007Z,21.12
2023-05-15T14:07:28.577Z,21.22
2023-05-15T14:09:33.755Z,21.27
2023-05-15T14:11:42.160Z,21.45
2023-05-15T14:13:49.744Z,21.68
2023-05-15T14:15:55.117Z,21.84
2023-05-15T14:18:00.020Z,21.69
2023-05-15T14:20:05.339Z,21.72
2023-05-15T14:22:10.251Z,21.80
2023-05-15T14:24:15.078Z,21.78
2023-05-15T14:26:19.996Z,21.68
2023-05-15T14:28:24.662Z,21.73
2023-05-15T14:30:32.246Z,21.92
2023-05-15T14:32:37.236Z,21.92
2023-05-15T14:34:41.929Z,21.81
2023-05-15T14:36:46.974Z,21.92
2023-05-15T14:38:54.717Z,21.98
2023-05-15T14:40:59.702Z,21.92
2023-05-15T14:43:04.649Z,21.97
2023-05-15T14:45:09.875Z,22.00
2023-05-15T14:47:17.488Z,22.23
2023-05-15T14:49:22.500Z,22.51
2023-05-15T14:51:27.425Z,22.55
2023-05-15T14:53:32.191Z,22.68
2023-05-15T14:55:37.254Z,22.93
2023-05-15T14:57:41.991Z,22.78
2023-05-15T14:59:46.846Z,22.68
2023-05-15T15:01:52.003Z,22.46
2023-05-15T15:03:59.680Z,22.47
2023-05-15T15:06:04.643Z,22.36
2023-05-15T15:08:11.916Z,22.23
2023-05-15T15:10:19.181Z,22.08
2023-05-15T15:12:24.108Z,22.02
2023-05-15T15:14:29.154Z,21.92
2023-05-15T15:16:33.905Z,21.78
2023-05-15T15:18:40.151Z,21.79
2023-05-15T15:20:47.678Z,21.88
2023-05-15T15:22:52.661Z,22.09
2023-05-15T15:24:59.855Z,22.18
2023-05-15T15:27:05.860Z,22.15
2023-05-15T15:29:10.749Z,22.21
2023-05-15T15:31:15.993Z,22.29
2023-05-15T15:33:20.941Z,22.37
2023-05-15T15:35:26.105Z,22.17
2023-05-15T15:37:36.922Z,22.04
2023-05-15T15:39:41.993Z,22.36
2023-05-15T15:41:46.826Z,22.57
2023-05-15T15:43:51.817Z,22.37
2023-05-15T15:45:56.675Z,22.07
2023-05-15T15:48:01.781Z,22.04
2023-05-15T15:50:06.557Z,22.04
2023-05-15T15:52:11.478Z,22.40
2023-05-15T15:54:18.754Z,22.41
2023-05-15T15:56:24.160Z,22.50
2023-05-15T15:58:29.060Z,22.64
2023-05-15T16:00:33.870Z,22.51
2023-05-15T16:02:42.144Z,22.36
2023-05-15T16:04:47.226Z,22.18
2023-05-15T16:06:52.126Z,22.08
2023-05-15T16:08:56.829Z,21.66
2023-05-15T16:11:04.449Z,21.39
2023-05-15T16:13:09.416Z,21.33
2023-05-15T16:15:23.078Z,21.21
2023-05-15T16:17:28.587Z,21.11
2023-05-15T16:19:33.524Z,20.99
2023-05-15T16:21:39.163Z,20.95
2023-05-15T16:23:44.196Z,20.80
2023-05-15T16:25:48.917Z,20.44
2023-05-15T16:27:56.510Z,20.34
2023-05-15T16:30:01.464Z,20.10
2023-05-15T16:32:06.360Z,19.87
2023-05-15T16:34:11.856Z,19.66
2023-05-15T16:36:16.832Z,19.60
2023-05-15T16:38:23.020Z,19.63
2023-05-15T16:40:27.989Z,19.73
2023-05-15T16:42:32.907Z,19.93
2023-05-15T16:44:40.545Z,20.01
2023-05-15T16:46:45.539Z,20.00
2023-05-15T16:48:50.526Z,20.01
2023-05-15T16:50:55.605Z,20.02
2023-05-15T16:53:00.577Z,19.96
2023-05-15T16:55:05.305Z,19.81
2023-05-15T16:57:10.266Z,19.91
2023-05-15T16:59:15.311Z,20.01
2023-05-15T17:01:22.961Z,20.17
2023-05-15T17:03:28.187Z,20.11
2023-05-15T17:05:33.210Z,19.89
2023-05-15T17:07:38.708Z,19.80
2023-05-15T17:09:44.650Z,19.78
2023-05-15T17:11:49.679Z,19.57
2023-05-15T17:13:54.608Z,19.47
2023-05-15T17:15:59.606Z,19.23
2023-05-15T17:18:07.338Z,19.06
2023-05-15T17:20:14.118Z,18.88
2023-05-15T17:22:19.084Z,18.67
2023-05-15T17:24:24.011Z,18.51
2023-05-15T17:26:29.031Z,18.46
2023-05-15T17:28:35.879Z,18.26
2023-05-15T17:30:42.523Z,18.14
2023-05-15T17:32:47.493Z,18.09
2023-05-15T17:34:55.006Z,17.93
2023-05-15T17:37:00.005Z,17.70
2023-05-15T17:39:05.048Z,17.61
2023-05-15T17:41:10.174Z,17.45
2023-05-15T17:43:15.031Z,17.35
2023-05-15T17:45:20.196Z,17.27
2023-05-15T17:47:24.968Z,17.20
2023-05-15T17:49:30.273Z,17.21
2023-05-15T17:51:37.870Z,17.22
2023-05-15T17:53:43.842Z,17.20
2023-05-15T17:55:48.895Z,17.04
2023-05-15T17:57:53.729Z,16.88
2023-05-15T17:59:58.612Z,16.79
2023-05-15T18:02:04.125Z,16.70
2023-05-15T18:04:09.315Z,16.62
2023-05-15T18:06:14.856Z,16.61
2023-05-15T18:08:22.414Z,16.50
2023-05-15T18:10:27.596Z,16.52
2023-05-15T18:12:32.188Z,16.43
2023-05-15T18:14:38.787Z,16.38
2023-05-15T18:16:45.270Z,16.34
2023-05-15T18:18:52.298Z,16.34
2023-05-15T18:20:57.362Z,16.07
2023-05-15T18:23:02.152Z,16.03
2023-05-15T18:25:10.368Z,16.01
2023-05-15T18:27:15.327Z,16.01
2023-05-15T18:29:20.210Z,16.09
2023-05-15T18:31:25.176Z,16.05
2023-05-15T18:33:30.121Z,15.65
2023-05-15T18:35:35.138Z,14.98
2023-05-15T18:37:40.039Z,14.54
2023-05-15T18:39:45.550Z,13.80
2023-05-15T18:41:54.228Z,13.62
2023-05-15T18:43:59.176Z,13.67
2023-05-15T18:46:04.128Z,13.68
2023-05-15T18:48:10.778Z,13.56
2023-05-15T18:50:16.443Z,13.73
2023-05-15T18:52:21.687Z,13.62
2023-05-15T18:54:26.941Z,13.58
2023-05-15T18:56:31.958Z,13.57
2023-05-15T18:58:40.003Z,13.63
2023-05-15T19:00:45.704Z,13.72
2023-05-15T19:02:50.798Z,13.78
2023-05-15T19:04:56.003Z,13.80
2023-05-15T19:07:03.849Z,13.84
2023-05-15T19:09:09.672Z,13.93
2023-05-15T19:11:14.586Z,14.01
2023-05-15T19:13:19.546Z,14.08
2023-05-15T19:15:28.120Z,14.17
2023-05-15T19:17:33.885Z,14.18
2023-05-15T19:19:40.109Z,14.15
2023-05-15T19:21:45.034Z,14.20
2023-05-15T19:23:49.933Z,14.34
2023-05-15T19:25:54.958Z,14.45
2023-05-15T19:27:59.850Z,14.50
2023-05-15T19:30:06.227Z,14.53
2023-05-15T19:32:13.780Z,14.59
2023-05-15T19:34:18.920Z,14.60
2023-05-15T19:36:24.142Z,14.56
2023-05-15T19:38:29.206Z,14.53
2023-05-15T19:40:35.293Z,14.55
2023-05-15T19:42:40.399Z,14.55
2023-05-15T19:44:45.311Z,14.61
2023-05-15T19:46:51.012Z,14.66
2023-05-15T19:48:59.159Z,14.70
2023-05-15T19:51:04.132Z,14.75
2023-05-15T19:53:09.062Z,14.78
2023-05-15T19:55:14.109Z,14.83
2023-05-15T19:57:19.119Z,14.90
2023-05-15T19:59:23.851Z,14.82
2023-05-15T20:01:29.024Z,14.88
2023-05-15T20:03:35.598Z,14.88
2023-05-15T20:05:44.950Z,14.90
2023-05-15T20:07:50.260Z,14.91
2023-05-15T20:09:55.184Z,14.96
2023-05-15T20:12:00.125Z,14.94
2023-05-15T20:14:05.138Z,14.96
2023-05-15T20:16:12.821Z,14.97
2023-05-15T20:18:18.225Z,14.99
2023-05-15T20:20:23.333Z,15.03
2023-05-15T20:22:31.653Z,15.07
2023-05-15T20:24:36.621Z,15.00
2023-05-15T20:26:42.000Z,15.04
2023-05-15T20:28:47.094Z,14.99
2023-05-15T20:30:52.575Z,15.00
2023-05-15T20:32:57.624Z,15.01
2023-05-15T20:35:03.467Z,15.11
2023-05-15T20:37:09.251Z,15.08
2023-05-15T20:39:17.584Z,14.99
2023-05-15T20:41:23.338Z,14.98
2023-05-15T20:43:28.342Z,14.92
2023-05-15T20:45:34.492Z,15.00
2023-05-15T20:47:40.633Z,14.99
2023-05-15T20:49:46.142Z,15.03
2023-05-15T20:51:51.591Z,15.05
2023-05-15T20:53:56.615Z,15.08
2023-05-15T20:56:04.157Z,15.09
2023-05-15T20:58:09.138Z,15.08
2023-05-15T21:00:15.571Z,15.09
2023-05-15T21:02:20.656Z,15.07
2023-05-15T21:04:25.712Z,14.95
2023-05-15T21:06:31.185Z,14.89
2023-05-15T21:08:36.158Z,14.88
2023-05-15T21:10:41.090Z,14.82
2023-05-15T21:12:48.579Z,14.75
2023-05-15T21:14:53.484Z,14.73
2023-05-15T21:16:58.715Z,14.71
2023-05-15T21:19:04.261Z,14.65
2023-05-15T21:21:09.535Z,14.59
2023-05-15T21:23:14.602Z,14.56
2023-05-15T21:25:19.765Z,14.54
2023-05-15T21:27:24.451Z,14.54
2023-05-15T21:29:32.204Z,14.53
2023-05-15T21:31:37.351Z,14.48
2023-05-15T21:33:42.688Z,14.40
2023-05-15T21:35:48.896Z,14.29
2023-05-15T21:37:53.868Z,14.29
2023-05-15T21:39:58.813Z,14.28
2023-05-15T21:42:03.790Z,14.20
2023-05-15T21:44:08.714Z,14.20
2023-05-15T21:46:16.309Z,14.20
2023-05-15T21:48:21.346Z,14.13
2023-05-15T21:50:26.386Z,14.12
2023-05-15T21:52:31.197Z,14.08
2023-05-15T21:54:36.132Z,14.09
2023-05-15T21:56:41.379Z,14.11
2023-05-15T21:58:45.980Z,14.09
2023-05-15T22:00:51.366Z,14.02
2023-05-15T22:02:58.946Z,13.89
2023-05-15T22:05:04.038Z,13.84
2023-05-15T22:07:08.990Z,13.78
2023-05-15T22:09:13.952Z,13.76
2023-05-15T22:11:18.837Z,13.78
2023-05-15T22:13:23.870Z,13.81
2023-05-15T22:15:28.763Z,13.86
2023-05-15T22:17:36.848Z,13.88
2023-05-15T22:19:45.933Z,13.92
2023-05-15T22:21:50.879Z,13.89
2023-05-15T22:23:55.858Z,13.84
2023-05-15T22:26:01.154Z,13.82
2023-05-15T22:28:05.819Z,13.78
2023-05-15T22:30:12.045Z,13.76
2023-05-15T22:32:16.942Z,13.71
2023-05-15T22:34:22.031Z,13.64
2023-05-15T22:36:31.162Z,13.66
2023-05-15T22:38:36.136Z,13.54
2023-05-15T22:40:41.302Z,13.56
2023-05-15T22:42:50.297Z,13.52
2023-05-15T22:44:57.470Z,13.50
2023-05-15T22:47:02.406Z,13.55
2023-05-15T22:49:09.418Z,13.57
2023-05-15T22:51:16.386Z,13.63
2023-05-15T22:53:23.913Z,13.60
2023-05-15T22:55:28.905Z,13.51
2023-05-15T22:57:33.834Z,13.45
2023-05-15T22:59:39.929Z,13.49
2023-05-15T23:01:45.002Z,13.47
2023-05-15T23:03:49.750Z,13.31
2023-05-15T23:05:54.762Z,13.25
2023-05-15T23:07:59.518Z,13.16
2023-05-15T23:10:07.761Z,13.12
2023-05-15T23:12:12.796Z,13.12
2023-05-15T23:14:17.882Z,13.15
2023-05-15T23:16:22.821Z,13.13
2023-05-15T23:18:27.784Z,13.16
2023-05-15T23:20:32.745Z,13.25
2023-05-15T23:22:37.657Z,13.34
2023-05-15T23:24:44.401Z,13.36
2023-05-15T23:26:51.886Z,13.46
2023-05-15T23:28:56.879Z,13.54
2023-05-15T23:31:01.872Z,13.64
2023-05-15T23:33:06.884Z,13.71
2023-05-15T23:35:12.793Z,13.78
2023-05-15T23:37:17.696Z,13.81
2023-05-15T23:39:22.651Z,13.83
2023-05-15T23:41:27.712Z,13.86
2023-05-15T23:43:39.549Z,13.90
2023-05-15T23:45:44.472Z,13.87
2023-05-15T23:47:49.454Z,13.88
2023-05-15T23:49:54.493Z,13.91
2023-05-15T23:51:59.407Z,13.94
2023-05-15T23:54:04.370Z,13.92
2023-05-15T23:56:10.086Z,13.91
2023-05-15T23:58:15.024Z,13.88
